Time;durP1;ratioP1;P1;durP2;ratioP2;P2;SDS_P1;SDS_P2;PMS_P1;PMS_P2;Temp;Humidity;BMP_temperature;BMP_pressure;BME280_temperature;BME280_humidity;BME280_pressure;Samples;Min_cycle;Max_cycle;Signal;HPM_P1;HPM_P2
2023/04/22 00:00:49;;;;;;;17.95;13.55;;;;;;;;;;5056517;28;20079;-69
2023/04/22 00:03:15;;;;;;;20.30;15.15;;;;;;;;;;5051448;28;20638;-69
2023/04/22 00:05:41;;;;;;;23.85;16.35;;;;;;;;;;5036400;28;20044;-69
2023/04/22 00:08:07;;;;;;;32.55;18.65;;;;;;;;;;5054592;28;20136;-69
2023/04/22 00:10:34;;;;;;;26.00;18.27;;;;;;;;;;5035483;28;20502;-69
2023/04/22 00:13:00;;;;;;;24.27;17.05;;;;;;;;;;5053092;28;20107;-69
2023/04/22 00:15:26;;;;;;;24.10;15.73;;;;;;;;;;5033838;28;20052;-69
2023/04/22 00:17:52;;;;;;;24.50;17.23;;;;;;;;;;5053877;28;20044;-69
2023/04/22 00:20:21;;;;;;;42.20;19.98;;;;;;;;;;5055111;28;20049;-69
2023/04/22 00:22:47;;;;;;;50.40;19.33;;;;;;;;;;5037399;28;20048;-69
2023/04/22 00:25:15;;;;;;;31.10;17.40;;;;;;;;;;5039440;28;20048;-69
2023/04/22 00:27:41;;;;;;;22.92;16.48;;;;;;;;;;5059814;28;20082;-69
2023/04/22 00:30:08;;;;;;;26.13;16.63;;;;;;;;;;5053660;28;20135;-69
2023/04/22 00:32:35;;;;;;;21.08;15.32;;;;;;;;;;5032089;28;20127;-69
2023/04/22 00:35:01;;;;;;;28.88;16.80;;;;;;;;;;5034810;28;20123;-69
2023/04/22 00:37:27;;;;;;;410.23;45.70;;;;;;;;;;5050813;28;20741;-69
2023/04/22 00:39:53;;;;;;;99.72;24.95;;;;;;;;;;5052998;28;20037;-69
2023/04/22 00:42:21;;;;;;;21.50;14.43;;;;;;;;;;5054622;28;20059;-69
2023/04/22 00:44:47;;;;;;;35.05;13.70;;;;;;;;;;5050423;28;20033;-69
2023/04/22 00:47:13;;;;;;;13.82;10.98;;;;;;;;;;5055259;28;20048;-69
2023/04/22 00:49:39;;;;;;;51.58;13.18;;;;;;;;;;5031062;28;20080;-69
2023/04/22 00:52:06;;;;;;;836.72;63.00;;;;;;;;;;5046912;28;20396;-69
2023/04/22 00:54:33;;;;;;;217.23;27.20;;;;;;;;;;5052443;28;20107;-69
2023/04/22 00:56:59;;;;;;;344.50;30.52;;;;;;;;;;5035126;28;20393;-69
2023/04/22 00:59:26;;;;;;;23.48;14.82;;;;;;;;;;5052452;28;20503;-69
2023/04/22 01:01:53;;;;;;;20.23;14.02;;;;;;;;;;5052010;28;20048;-69
2023/04/22 01:04:20;;;;;;;403.10;38.47;;;;;;;;;;5049896;28;20076;-69
2023/04/22 01:06:46;;;;;;;41.80;16.58;;;;;;;;;;5035333;28;20041;-69
2023/04/22 01:09:13;;;;;;;58.05;16.75;;;;;;;;;;5052818;28;20539;-69
2023/04/22 01:11:39;;;;;;;101.47;19.17;;;;;;;;;;5053939;28;20047;-69
2023/04/22 01:14:05;;;;;;;84.60;15.27;;;;;;;;;;5052794;28;20451;-69
2023/04/22 01:16:34;;;;;;;66.53;16.73;;;;;;;;;;5035935;28;20076;-69
2023/04/22 01:19:01;;;;;;;19.38;11.93;;;;;;;;;;5059002;28;20048;-69
2023/04/22 01:21:28;;;;;;;15.25;11.68;;;;;;;;;;5039023;28;20076;-69
2023/04/22 01:23:54;;;;;;;16.95;11.10;;;;;;;;;;5036086;28;20056;-69
2023/04/22 01:26:21;;;;;;;14.38;9.93;;;;;;;;;;5052427;28;20059;-69
2023/04/22 01:28:47;;;;;;;16.10;10.85;;;;;;;;;;5052765;28;20684;-69
2023/04/22 01:31:13;;;;;;;15.45;11.80;;;;;;;;;;5053543;28;20047;-69
2023/04/22 01:33:39;;;;;;;23.77;14.88;;;;;;;;;;5052552;28;20168;-69
2023/04/22 01:36:06;;;;;;;22.17;15.10;;;;;;;;;;5052144;28;20700;-69
2023/04/22 01:38:32;;;;;;;21.50;14.43;;;;;;;;;;5034568;28;20431;-69
2023/04/22 01:41:00;;;;;;;22.52;15.70;;;;;;;;;;5052864;28;20055;-69
2023/04/22 01:43:26;;;;;;;32.45;15.82;;;;;;;;;;5054819;28;20139;-69
2023/04/22 01:45:53;;;;;;;19.23;13.10;;;;;;;;;;5052390;28;20250;-69
2023/04/22 01:48:19;;;;;;;21.08;13.02;;;;;;;;;;5060415;28;20052;-69
2023/04/22 01:50:46;;;;;;;18.20;12.93;;;;;;;;;;5059863;28;20036;-69
2023/04/22 01:53:12;;;;;;;15.30;11.27;;;;;;;;;;5040026;28;20691;-69
2023/04/22 01:55:38;;;;;;;16.42;11.60;;;;;;;;;;5057008;28;20047;-69
2023/04/22 01:58:05;;;;;;;19.70;13.27;;;;;;;;;;5059398;28;20117;-69
2023/04/22 02:00:31;;;;;;;20.58;12.93;;;;;;;;;;5039552;28;20091;-69
2023/04/22 02:02:57;;;;;;;21.17;14.95;;;;;;;;;;5057166;28;20044;-69
2023/04/22 02:05:23;;;;;;;17.48;12.45;;;;;;;;;;5056832;28;20049;-69
2023/04/22 02:07:55;;;;;;;17.33;13.52;;;;;;;;;;5057833;28;20123;-69
2023/04/22 02:10:21;;;;;;;17.88;12.73;;;;;;;;;;5055922;28;20041;-69
2023/04/22 02:12:47;;;;;;;151.77;14.43;;;;;;;;;;5040850;28;20049;-69
2023/04/22 02:15:14;;;;;;;12.02;9.27;;;;;;;;;;5061239;28;20064;-69
2023/04/22 02:17:41;;;;;;;46.15;9.27;;;;;;;;;;5053443;28;20049;-69
2023/04/22 02:20:10;;;;;;;12.40;8.85;;;;;;;;;;5060441;28;20056;-69
2023/04/22 02:22:36;;;;;;;13.60;9.60;;;;;;;;;;5057639;28;20076;-69
2023/04/22 02:25:03;;;;;;;12.85;9.90;;;;;;;;;;5053407;28;20032;-69
2023/04/22 02:27:29;;;;;;;26.38;10.85;;;;;;;;;;5056830;28;20048;-69
2023/04/22 02:29:56;;;;;;;10.05;8.10;;;;;;;;;;5037400;28;20204;-69
2023/04/22 02:32:22;;;;;;;409.27;19.98;;;;;;;;;;5060470;28;20777;-69
2023/04/22 02:34:48;;;;;;;365.88;14.35;;;;;;;;;;5055442;28;20545;-69
2023/04/22 02:37:14;;;;;;;124.75;7.35;;;;;;;;;;5056375;28;21066;-69
2023/04/22 02:39:40;;;;;;;92.20;9.35;;;;;;;;;;5056163;28;20040;-69
2023/04/22 02:42:06;;;;;;;70.38;7.90;;;;;;;;;;5058862;28;20392;-69
2023/04/22 02:44:32;;;;;;;119.85;10.55;;;;;;;;;;5059006;28;20045;-69
2023/04/22 02:46:59;;;;;;;74.63;11.23;;;;;;;;;;5039657;28;20119;-69
2023/04/22 02:49:25;;;;;;;109.28;10.68;;;;;;;;;;5056932;28;20041;-69
2023/04/22 02:51:51;;;;;;;273.10;12.43;;;;;;;;;;5035200;28;20513;-69
2023/04/22 02:54:17;;;;;;;346.27;14.75;;;;;;;;;;5037800;28;20051;-69
2023/04/22 02:56:43;;;;;;;140.20;6.93;;;;;;;;;;5057085;28;20132;-69
2023/04/22 02:59:09;;;;;;;150.60;6.13;;;;;;;;;;5051740;28;20123;-69
2023/04/22 03:01:35;;;;;;;60.55;4.53;;;;;;;;;;5054663;28;20052;-69
2023/04/22 03:04:01;;;;;;;23.23;4.97;;;;;;;;;;5054313;28;20052;-69
2023/04/22 03:06:27;;;;;;;48.08;7.68;;;;;;;;;;5033499;28;20072;-69
2023/04/22 03:08:53;;;;;;;58.42;8.25;;;;;;;;;;5055181;28;20109;-69
2023/04/22 03:11:20;;;;;;;57.05;6.43;;;;;;;;;;5056512;28;20051;-69
2023/04/22 03:13:46;;;;;;;132.40;10.70;;;;;;;;;;5055256;28;20047;-69
2023/04/22 03:16:12;;;;;;;126.88;10.70;;;;;;;;;;5056341;28;20045;-69
2023/04/22 03:18:38;;;;;;;141.40;11.13;;;;;;;;;;5057936;28;20124;-69
2023/04/22 03:21:05;;;;;;;39.45;8.02;;;;;;;;;;5050677;28;20656;-69
2023/04/22 03:23:31;;;;;;;29.42;10.18;;;;;;;;;;5051289;28;20059;-69
2023/04/22 03:25:57;;;;;;;14.73;9.25;;;;;;;;;;5055104;28;20139;-69
2023/04/22 03:28:23;;;;;;;14.75;9.57;;;;;;;;;;5055353;28;20049;-69
2023/04/22 03:30:49;;;;;;;15.70;11.10;;;;;;;;;;5055442;28;20087;-69
2023/04/22 03:33:15;;;;;;;15.52;11.65;;;;;;;;;;5035887;28;20044;-69
2023/04/22 03:35:42;;;;;;;23.15;11.57;;;;;;;;;;5053681;28;20468;-69
2023/04/22 03:38:08;;;;;;;18.10;12.18;;;;;;;;;;5057377;28;20044;-69
2023/04/22 03:40:34;;;;;;;15.57;11.85;;;;;;;;;;5054745;28;20518;-69
2023/04/22 03:43:00;;;;;;;20.10;12.73;;;;;;;;;;5036915;28;20120;-69
2023/04/22 03:45:26;;;;;;;17.98;13.07;;;;;;;;;;5053500;28;20238;-69
2023/04/22 03:47:52;;;;;;;16.88;13.23;;;;;;;;;;5023006;28;20110;-69
2023/04/22 03:50:18;;;;;;;20.02;14.93;;;;;;;;;;5032677;28;20276;-69
2023/04/22 03:52:45;;;;;;;16.08;13.50;;;;;;;;;;5055351;28;20063;-69
2023/04/22 03:55:11;;;;;;;19.52;15.55;;;;;;;;;;5055832;28;20036;-69
2023/04/22 03:57:37;;;;;;;19.77;14.65;;;;;;;;;;5055992;28;20048;-69
2023/04/22 04:00:03;;;;;;;188.00;18.83;;;;;;;;;;5055235;28;20059;-69
2023/04/22 04:02:29;;;;;;;401.00;26.45;;;;;;;;;;5053646;28;20048;-69
2023/04/22 04:04:55;;;;;;;50.28;11.38;;;;;;;;;;5056081;28;20835;-69
2023/04/22 04:07:21;;;;;;;17.08;12.30;;;;;;;;;;5053246;28;20041;-69
2023/04/22 04:09:47;;;;;;;26.33;11.82;;;;;;;;;;5034599;28;20043;-68
2023/04/22 04:12:14;;;;;;;17.83;11.52;;;;;;;;;;5054955;28;20044;-76
2023/04/22 04:14:40;;;;;;;23.45;12.23;;;;;;;;;;5032462;28;20761;-68
2023/04/22 04:17:08;;;;;;;22.27;11.38;;;;;;;;;;5055847;28;20055;-68
2023/04/22 04:19:34;;;;;;;20.42;12.05;;;;;;;;;;5054733;28;21038;-68
2023/04/22 04:22:00;;;;;;;58.97;13.50;;;;;;;;;;5049324;28;20040;-72
2023/04/22 04:24:27;;;;;;;46.40;13.65;;;;;;;;;;5033174;28;20181;-71
2023/04/22 04:26:53;;;;;;;16.85;12.10;;;;;;;;;;5056580;28;20068;-71
2023/04/22 04:29:19;;;;;;;16.73;12.85;;;;;;;;;;5055857;28;20526;-71
2023/04/22 04:31:45;;;;;;;17.70;11.85;;;;;;;;;;5058247;28;20040;-71
2023/04/22 04:34:12;;;;;;;54.78;12.43;;;;;;;;;;5035558;28;20040;-71
2023/04/22 04:36:38;;;;;;;36.00;14.38;;;;;;;;;;5053704;28;20072;-71
2023/04/22 04:39:05;;;;;;;19.38;14.32;;;;;;;;;;5037349;28;20376;-70
2023/04/22 04:41:32;;;;;;;22.33;14.90;;;;;;;;;;5055060;28;20131;-71
2023/04/22 04:43:59;;;;;;;20.48;15.90;;;;;;;;;;5053238;28;20045;-71
2023/04/22 04:46:28;;;;;;;21.75;15.93;;;;;;;;;;5052388;28;20070;-70
2023/04/22 04:48:54;;;;;;;19.25;14.57;;;;;;;;;;5034720;28;20055;-69
2023/04/22 04:51:20;;;;;;;169.45;17.23;;;;;;;;;;5054186;28;20053;-70
2023/04/22 04:53:46;;;;;;;292.77;15.77;;;;;;;;;;5055884;28;20036;-70
2023/04/22 04:56:13;;;;;;;167.75;11.77;;;;;;;;;;5036391;28;20059;-70
2023/04/22 04:58:39;;;;;;;32.13;10.13;;;;;;;;;;5059025;28;20081;-70
2023/04/22 05:01:05;;;;;;;199.43;11.98;;;;;;;;;;5054636;28;20118;-70
2023/04/22 05:03:31;;;;;;;408.25;17.58;;;;;;;;;;5056693;28;20045;-71
2023/04/22 05:05:57;;;;;;;233.13;10.90;;;;;;;;;;5037031;28;20171;-69
2023/04/22 05:08:24;;;;;;;211.82;13.15;;;;;;;;;;5054219;28;20072;-69
2023/04/22 05:10:50;;;;;;;192.27;11.52;;;;;;;;;;5037082;28;20041;-68
2023/04/22 05:13:16;;;;;;;175.05;10.90;;;;;;;;;;5055886;28;20032;-68
2023/04/22 05:15:42;;;;;;;185.10;12.02;;;;;;;;;;5054308;28;20037;-69
2023/04/22 05:18:08;;;;;;;150.80;10.00;;;;;;;;;;5038153;28;20481;-69
2023/04/22 05:20:34;;;;;;;146.85;8.32;;;;;;;;;;5028540;28;20147;-69
2023/04/22 05:23:00;;;;;;;211.93;10.60;;;;;;;;;;5039255;28;20032;-69
2023/04/22 05:25:26;;;;;;;156.18;9.55;;;;;;;;;;5038796;28;20040;-69
2023/04/22 05:27:53;;;;;;;140.82;7.53;;;;;;;;;;5041944;28;20057;-69
2023/04/22 05:30:19;;;;;;;111.75;6.65;;;;;;;;;;5039863;28;20049;-69
2023/04/22 05:32:45;;;;;;;57.28;5.32;;;;;;;;;;5034842;28;20138;-70
2023/04/22 05:35:11;;;;;;;63.88;5.50;;;;;;;;;;5039042;28;20037;-70
2023/04/22 05:37:38;;;;;;;76.65;6.30;;;;;;;;;;5038783;28;20048;-70
2023/04/22 05:40:05;;;;;;;61.90;5.82;;;;;;;;;;5043414;28;20143;-70
2023/04/22 05:42:31;;;;;;;32.20;5.60;;;;;;;;;;5043792;28;20080;-70
2023/04/22 05:44:57;;;;;;;25.90;4.95;;;;;;;;;;5044393;28;20116;-70
2023/04/22 05:47:24;;;;;;;50.92;6.38;;;;;;;;;;5043544;28;20214;-70
2023/04/22 05:49:50;;;;;;;38.55;5.53;;;;;;;;;;5046628;28;20453;-70
2023/04/22 05:52:17;;;;;;;22.02;4.72;;;;;;;;;;5035628;28;20066;-70
2023/04/22 05:54:43;;;;;;;12.13;5.03;;;;;;;;;;5042889;28;20079;-70
2023/04/22 05:57:10;;;;;;;12.15;4.93;;;;;;;;;;5041812;28;20096;-70
2023/04/22 05:59:36;;;;;;;15.65;5.10;;;;;;;;;;5024631;28;20057;-70
2023/04/22 06:02:02;;;;;;;11.63;4.70;;;;;;;;;;5020812;28;20052;-69
2023/04/22 06:04:28;;;;;;;24.50;6.00;;;;;;;;;;5037064;28;20109;-69
2023/04/22 06:06:55;;;;;;;36.83;7.00;;;;;;;;;;5032407;28;20042;-70
2023/04/22 06:09:21;;;;;;;20.35;6.60;;;;;;;;;;5035982;28;20118;-69
2023/04/22 06:11:48;;;;;;;41.38;8.88;;;;;;;;;;5034082;28;20064;-68
2023/04/22 06:14:14;;;;;;;27.38;7.15;;;;;;;;;;5038535;28;20049;-77
2023/04/22 06:16:40;;;;;;;55.78;9.00;;;;;;;;;;5031840;28;20171;-68
2023/04/22 06:19:06;;;;;;;54.22;8.80;;;;;;;;;;5039373;28;20120;-68
2023/04/22 06:21:32;;;;;;;78.60;9.65;;;;;;;;;;5059539;28;20337;-67
2023/04/22 06:24:00;;;;;;;75.03;9.68;;;;;;;;;;5051391;28;20531;-68
2023/04/22 06:26:26;;;;;;;101.60;11.48;;;;;;;;;;5057154;28;20085;-68
2023/04/22 06:28:52;;;;;;;102.68;12.55;;;;;;;;;;5052052;28;20179;-68
2023/04/22 06:31:18;;;;;;;98.78;12.77;;;;;;;;;;5055030;28;20128;-68
2023/04/22 06:33:45;;;;;;;58.83;13.20;;;;;;;;;;5042413;28;20059;-68
2023/04/22 06:36:12;;;;;;;40.83;13.50;;;;;;;;;;5041640;28;20127;-68
2023/04/22 06:38:38;;;;;;;34.22;15.50;;;;;;;;;;5037014;28;20048;-68
2023/04/22 06:41:05;;;;;;;44.85;18.70;;;;;;;;;;5063461;28;20040;-84
2023/04/22 06:43:31;;;;;;;41.13;17.45;;;;;;;;;;5063752;28;20483;-69
2023/04/22 06:45:57;;;;;;;35.35;19.40;;;;;;;;;;5060529;28;20045;-68
2023/04/22 06:48:23;;;;;;;34.08;21.70;;;;;;;;;;5070034;28;20052;-69
2023/04/22 06:50:50;;;;;;;34.50;24.15;;;;;;;;;;5065361;28;20055;-69
2023/04/22 06:53:16;;;;;;;35.83;24.98;;;;;;;;;;5064055;28;20044;-69
2023/04/22 06:55:42;;;;;;;34.88;24.50;;;;;;;;;;5070288;28;20436;-69
2023/04/22 06:58:08;;;;;;;33.03;24.73;;;;;;;;;;5066533;28;20400;-69
2023/04/22 07:00:34;;;;;;;31.05;23.90;;;;;;;;;;5067585;28;20041;-69
2023/04/22 07:03:00;;;;;;;34.35;25.60;;;;;;;;;;5066646;28;20041;-70
2023/04/22 07:05:26;;;;;;;36.97;26.05;;;;;;;;;;5070581;28;20044;-70
2023/04/22 07:07:52;;;;;;;36.65;27.02;;;;;;;;;;5053398;28;20128;-70
2023/04/22 07:10:19;;;;;;;39.20;26.58;;;;;;;;;;5069450;28;20056;-70
2023/04/22 07:12:45;;;;;;;34.92;25.88;;;;;;;;;;5070804;28;20400;-70
2023/04/22 07:15:11;;;;;;;37.78;27.33;;;;;;;;;;5052891;28;20052;-70
2023/04/22 07:17:38;;;;;;;36.97;28.65;;;;;;;;;;5069076;28;20036;-70
2023/04/22 07:20:05;;;;;;;33.78;25.88;;;;;;;;;;5066931;28;20081;-70
2023/04/22 07:22:31;;;;;;;30.38;24.83;;;;;;;;;;5052919;28;20044;-70
2023/04/22 07:24:57;;;;;;;32.03;24.40;;;;;;;;;;5047079;28;20045;-69
2023/04/22 07:27:24;;;;;;;29.00;22.65;;;;;;;;;;5065643;28;20049;-69
2023/04/22 07:29:50;;;;;;;26.77;21.77;;;;;;;;;;5052348;28;20040;-70
2023/04/22 07:32:16;;;;;;;28.15;22.63;;;;;;;;;;5070265;28;20082;-70
2023/04/22 07:34:43;;;;;;;25.38;20.30;;;;;;;;;;5065995;28;20055;-70
2023/04/22 07:37:09;;;;;;;26.70;20.80;;;;;;;;;;5050559;28;20084;-70
2023/04/22 07:39:35;;;;;;;24.67;19.85;;;;;;;;;;5067958;28;20048;-70
2023/04/22 07:42:02;;;;;;;25.70;19.42;;;;;;;;;;5070215;28;20098;-70
2023/04/22 07:44:28;;;;;;;27.58;20.80;;;;;;;;;;5051167;28;20143;-69
2023/04/22 07:46:54;;;;;;;25.95;19.95;;;;;;;;;;5049815;28;20111;-71
2023/04/22 07:49:20;;;;;;;24.83;20.67;;;;;;;;;;5064087;28;20121;-71
2023/04/22 07:51:46;;;;;;;24.75;20.73;;;;;;;;;;5044101;28;20043;-69
2023/04/22 07:54:13;;;;;;;23.27;20.55;;;;;;;;;;5058901;28;20084;-69
2023/04/22 07:56:39;;;;;;;25.88;19.10;;;;;;;;;;5045575;28;20052;-70
2023/04/22 07:59:05;;;;;;;23.17;18.65;;;;;;;;;;5057229;28;20052;-69
2023/04/22 08:01:31;;;;;;;21.40;17.23;;;;;;;;;;5053974;28;20033;-69
2023/04/22 08:03:57;;;;;;;28.63;17.70;;;;;;;;;;5054179;28;20448;-69
2023/04/22 08:06:23;;;;;;;21.42;18.75;;;;;;;;;;5056447;28;20078;-69
2023/04/22 08:08:49;;;;;;;20.95;17.95;;;;;;;;;;5057055;28;20347;-70
2023/04/22 08:11:16;;;;;;;21.63;17.27;;;;;;;;;;5055136;28;20052;-70
2023/04/22 08:13:42;;;;;;;20.77;16.42;;;;;;;;;;5059463;28;20060;-70
2023/04/22 08:16:08;;;;;;;25.75;16.40;;;;;;;;;;5057621;28;20480;-70
2023/04/22 08:18:35;;;;;;;22.13;16.98;;;;;;;;;;5057878;28;20049;-78
2023/04/22 08:21:01;;;;;;;19.30;16.67;;;;;;;;;;5039876;28;20048;-70
2023/04/22 08:23:27;;;;;;;20.70;15.60;;;;;;;;;;5057997;28;20094;-70
2023/04/22 08:25:53;;;;;;;19.73;15.93;;;;;;;;;;5064139;28;20067;-70
2023/04/22 08:28:19;;;;;;;21.23;17.38;;;;;;;;;;5060460;28;20091;-70
2023/04/22 08:30:45;;;;;;;18.80;15.75;;;;;;;;;;5054331;28;20098;-70
2023/04/22 08:33:12;;;;;;;19.42;16.38;;;;;;;;;;5055017;28;20391;-70
2023/04/22 08:35:38;;;;;;;19.63;15.93;;;;;;;;;;5060782;28;20123;-70
2023/04/22 08:38:04;;;;;;;22.15;16.65;;;;;;;;;;5042047;28;20044;-70
2023/04/22 08:40:30;;;;;;;22.35;17.88;;;;;;;;;;5038306;28;20047;-71
2023/04/22 08:42:57;;;;;;;23.02;18.17;;;;;;;;;;5055695;28;20052;-71
2023/04/22 08:45:23;;;;;;;23.48;19.45;;;;;;;;;;5039718;28;20047;-71
2023/04/22 08:47:50;;;;;;;23.52;18.08;;;;;;;;;;5038206;28;20113;-71
2023/04/22 08:50:16;;;;;;;24.08;17.90;;;;;;;;;;5059862;28;20040;-70
2023/04/22 08:52:42;;;;;;;20.63;17.00;;;;;;;;;;5039785;28;20048;-70
2023/04/22 08:55:09;;;;;;;20.98;17.02;;;;;;;;;;5041155;28;20049;-70
2023/04/22 08:57:36;;;;;;;20.35;16.70;;;;;;;;;;5060272;28;20563;-70
2023/04/22 09:00:03;;;;;;;21.50;17.17;;;;;;;;;;5059975;28;20051;-71
2023/04/22 09:02:31;;;;;;;22.98;18.10;;;;;;;;;;5058204;28;20049;-71
2023/04/22 09:04:57;;;;;;;21.08;17.52;;;;;;;;;;5036465;28;20072;-71
2023/04/22 09:07:24;;;;;;;20.58;16.80;;;;;;;;;;5056702;28;20480;-71
2023/04/22 09:09:51;;;;;;;20.73;16.20;;;;;;;;;;5042632;28;20092;-71
2023/04/22 09:12:17;;;;;;;22.20;16.20;;;;;;;;;;5059621;28;20460;-70
2023/04/22 09:14:44;;;;;;;20.08;16.55;;;;;;;;;;5059842;28;20040;-71
2023/04/22 09:17:10;;;;;;;21.15;17.00;;;;;;;;;;5061238;28;20044;-71
2023/04/22 09:19:37;;;;;;;23.27;18.60;;;;;;;;;;5035471;28;20523;-71
2023/04/22 09:22:03;;;;;;;21.23;17.33;;;;;;;;;;5032910;28;20919;-69
2023/04/22 09:24:29;;;;;;;21.40;17.55;;;;;;;;;;5032506;28;20041;-69
2023/04/22 09:26:56;;;;;;;19.25;16.10;;;;;;;;;;5033579;28;20033;-69
2023/04/22 09:29:22;;;;;;;21.60;16.40;;;;;;;;;;5037907;28;20112;-70
2023/04/22 09:31:49;;;;;;;19.67;16.15;;;;;;;;;;5037328;28;20431;-70
2023/04/22 09:34:15;;;;;;;20.55;16.73;;;;;;;;;;5032455;28;20103;-68
2023/04/22 09:36:42;;;;;;;21.98;16.45;;;;;;;;;;5036679;28;20088;-68
2023/04/22 09:39:08;;;;;;;20.55;15.73;;;;;;;;;;5038265;28;20410;-68
2023/04/22 09:41:38;;;;;;;22.70;16.20;;;;;;;;;;5033620;28;20037;-68
2023/04/22 09:44:07;;;;;;;18.95;15.57;;;;;;;;;;5034694;28;20512;-68
2023/04/22 09:46:34;;;;;;;18.75;16.52;;;;;;;;;;5030377;28;20351;-68
2023/04/22 09:49:00;;;;;;;19.55;15.35;;;;;;;;;;5033637;28;20416;-68
2023/04/22 09:51:27;;;;;;;18.60;15.38;;;;;;;;;;5036657;28;20052;-68
2023/04/22 09:54:00;;;;;;;15.73;14.02;;;;;;;;;;5036128;28;20049;-68
2023/04/22 09:56:41;;;;;;;15.90;13.82;;;;;;;;;;5035258;28;20048;-69
2023/04/22 09:59:07;;;;;;;16.15;13.38;;;;;;;;;;5034385;28;20060;-69
2023/04/22 10:01:39;;;;;;;15.25;13.35;;;;;;;;;;5034018;28;20045;-68
2023/04/22 10:04:08;;;;;;;14.50;12.65;;;;;;;;;;5037185;28;20384;-68
2023/04/22 10:06:35;;;;;;;13.30;11.90;;;;;;;;;;5035654;28;20057;-68
2023/04/22 10:09:01;;;;;;;22.23;13.02;;;;;;;;;;5038171;28;20554;-68
2023/04/22 10:11:28;;;;;;;14.90;13.27;;;;;;;;;;5042097;28;20685;-68
2023/04/22 10:13:54;;;;;;;15.93;12.57;;;;;;;;;;5040124;28;20045;-68
2023/04/22 10:16:21;;;;;;;14.77;12.73;;;;;;;;;;5038051;28;20472;-68
2023/04/22 10:18:47;;;;;;;13.68;11.70;;;;;;;;;;5043038;28;20088;-68
2023/04/22 10:21:14;;;;;;;13.52;11.18;;;;;;;;;;5057757;28;20044;-68
2023/04/22 10:23:45;;;;;;;12.55;11.25;;;;;;;;;;5060369;28;20075;-68
2023/04/22 10:26:11;;;;;;;15.57;11.70;;;;;;;;;;5061641;28;20480;-68
2023/04/22 10:28:43;;;;;;;15.57;12.05;;;;;;;;;;5057895;28;20080;-68
2023/04/22 10:31:22;;;;;;;12.82;10.77;;;;;;;;;;5061221;28;20032;-68
2023/04/22 10:33:48;;;;;;;16.48;12.30;;;;;;;;;;5056264;28;20408;-68
2023/04/22 10:36:14;;;;;;;14.30;11.95;;;;;;;;;;5058071;28;20265;-68
2023/04/22 10:39:01;;;;;;;13.20;11.35;;;;;;;;;;5060360;28;20040;-68
2023/04/22 10:41:30;;;;;;;13.98;11.13;;;;;;;;;;5054807;28;20618;-68
2023/04/22 10:43:57;;;;;;;15.65;11.85;;;;;;;;;;5056974;28;20516;-68
2023/04/22 10:46:31;;;;;;;16.35;11.82;;;;;;;;;;5040041;28;20458;-68
2023/04/22 10:48:58;;;;;;;13.10;11.15;;;;;;;;;;5039732;28;20049;-68
2023/04/22 10:51:38;;;;;;;14.73;11.38;;;;;;;;;;5056555;28;20060;-68
2023/04/22 10:54:05;;;;;;;12.32;10.57;;;;;;;;;;5056716;28;20503;-68
2023/04/22 10:56:31;;;;;;;12.38;10.27;;;;;;;;;;5039658;28;20206;-68
2023/04/22 10:58:57;;;;;;;13.75;11.00;;;;;;;;;;5055675;28;20114;-69
2023/04/22 11:01:27;;;;;;;16.55;11.20;;;;;;;;;;5039858;28;20083;-68
2023/04/22 11:03:53;;;;;;;13.40;10.73;;;;;;;;;;5058781;28;20048;-69
2023/04/22 11:06:21;;;;;;;12.18;10.85;;;;;;;;;;5059468;28;20114;-68
2023/04/22 11:08:49;;;;;;;13.10;11.23;;;;;;;;;;5055216;28;20052;-68
2023/04/22 11:11:17;;;;;;;11.32;10.13;;;;;;;;;;5055260;28;20041;-66
2023/04/22 11:13:44;;;;;;;13.43;11.43;;;;;;;;;;5057268;28;20518;-66
2023/04/22 11:16:10;;;;;;;11.35;10.15;;;;;;;;;;5059817;28;20512;-66
2023/04/22 11:18:37;;;;;;;12.02;10.73;;;;;;;;;;5055061;28;20029;-66
2023/04/22 11:21:07;;;;;;;11.68;10.45;;;;;;;;;;5060593;28;20044;-66
2023/04/22 11:23:33;;;;;;;12.27;10.75;;;;;;;;;;5056034;28;20044;-66
2023/04/22 11:26:00;;;;;;;13.93;11.10;;;;;;;;;;5035574;28;20045;-66
2023/04/22 11:28:27;;;;;;;13.32;10.13;;;;;;;;;;5038340;28;20041;-66
2023/04/22 11:31:00;;;;;;;13.30;10.52;;;;;;;;;;5040408;28;20064;-66
2023/04/22 11:33:26;;;;;;;11.60;10.25;;;;;;;;;;5037724;28;20052;-66
2023/04/22 11:35:54;;;;;;;12.75;9.82;;;;;;;;;;5038607;28;20043;-66
2023/04/22 11:38:20;;;;;;;12.20;9.43;;;;;;;;;;5055893;28;20123;-66
2023/04/22 11:40:46;;;;;;;10.85;9.48;;;;;;;;;;5057048;28;20087;-66
2023/04/22 11:43:12;;;;;;;11.73;8.88;;;;;;;;;;5059808;28;20106;-66
2023/04/22 11:45:39;;;;;;;12.10;9.20;;;;;;;;;;5058796;28;20534;-66
2023/04/22 11:48:06;;;;;;;11.65;10.23;;;;;;;;;;5042599;28;20060;-66
2023/04/22 11:50:34;;;;;;;12.10;9.52;;;;;;;;;;5060647;28;20055;-66
2023/04/22 11:53:07;;;;;;;14.57;9.98;;;;;;;;;;5058879;28;20040;-66
2023/04/22 11:55:34;;;;;;;11.02;9.57;;;;;;;;;;5038654;28;20477;-66
2023/04/22 11:58:01;;;;;;;12.77;9.98;;;;;;;;;;5039588;28;20067;-66
2023/04/22 12:00:30;;;;;;;12.30;9.98;;;;;;;;;;5055680;28;20040;-66
2023/04/22 12:02:59;;;;;;;13.40;10.48;;;;;;;;;;5055553;28;20060;-66
2023/04/22 12:05:32;;;;;;;14.05;11.05;;;;;;;;;;5037749;28;20032;-66
2023/04/22 12:07:58;;;;;;;;;;;;;;;;;;5040087;28;20055;-66
2023/04/22 12:10:24;;;;;;;15.25;12.05;;;;;;;;;;5059230;28;20378;-66
2023/04/22 12:12:50;;;;;;;14.00;11.45;;;;;;;;;;5038300;28;20042;-66
2023/04/22 12:15:16;;;;;;;14.70;11.60;;;;;;;;;;5055335;28;20048;-66
2023/04/22 12:17:44;;;;;;;15.25;12.48;;;;;;;;;;5058029;28;20061;-66
2023/04/22 12:20:12;;;;;;;11.77;10.20;;;;;;;;;;5060004;28;20163;-66
2023/04/22 12:22:38;;;;;;;12.50;10.10;;;;;;;;;;5055286;28;20055;-66
2023/04/22 12:25:04;;;;;;;12.63;10.05;;;;;;;;;;5037554;28;20055;-66
2023/04/22 12:27:31;;;;;;;18.20;10.90;;;;;;;;;;5055382;28;20056;-66
2023/04/22 12:29:57;;;;;;;17.80;10.50;;;;;;;;;;5040362;28;20032;-66
2023/04/22 12:32:24;;;;;;;14.35;10.95;;;;;;;;;;5040277;28;20448;-66
2023/04/22 12:34:50;;;;;;;14.55;11.27;;;;;;;;;;5044699;28;20067;-66
2023/04/22 12:37:17;;;;;;;12.35;10.65;;;;;;;;;;5044181;28;20072;-66
2023/04/22 12:39:44;;;;;;;11.18;8.77;;;;;;;;;;5056508;28;20045;-66
2023/04/22 12:42:10;;;;;;;13.27;10.40;;;;;;;;;;5019836;28;20053;-66
2023/04/22 12:44:36;;;;;;;13.20;10.80;;;;;;;;;;5054242;28;20151;-66
2023/04/22 12:47:02;;;;;;;12.93;10.57;;;;;;;;;;5050827;28;20473;-66
2023/04/22 12:49:28;;;;;;;12.35;10.52;;;;;;;;;;5033912;28;20052;-66
2023/04/22 12:51:55;;;;;;;13.77;10.90;;;;;;;;;;5035892;28;20574;-66
2023/04/22 12:54:21;;;;;;;16.70;11.10;;;;;;;;;;5054464;28;20507;-66
2023/04/22 12:56:48;;;;;;;12.95;10.90;;;;;;;;;;5055002;28;20036;-66
2023/04/22 12:59:14;;;;;;;13.18;11.65;;;;;;;;;;5054780;28;20078;-66
2023/04/22 13:01:40;;;;;;;14.73;11.43;;;;;;;;;;5056937;28;20111;-65
2023/04/22 13:04:07;;;;;;;13.40;11.35;;;;;;;;;;5056672;28;20053;-65
2023/04/22 13:06:35;;;;;;;13.88;11.77;;;;;;;;;;5039673;28;20350;-65
2023/04/22 13:09:02;;;;;;;14.80;12.00;;;;;;;;;;5040764;28;20048;-65
2023/04/22 13:11:28;;;;;;;30.60;12.23;;;;;;;;;;5055993;28;20059;-67
2023/04/22 13:13:54;;;;;;;12.90;10.88;;;;;;;;;;5036296;28;20041;-66
2023/04/22 13:16:20;;;;;;;16.83;11.63;;;;;;;;;;5069398;28;20448;-66
2023/04/22 13:18:46;;;;;;;13.18;11.75;;;;;;;;;;5067722;28;20464;-66
2023/04/22 13:21:14;;;;;;;14.02;12.48;;;;;;;;;;5069115;28;20070;-66
2023/04/22 13:23:40;;;;;;;15.43;13.10;;;;;;;;;;5068984;28;20043;-66
2023/04/22 13:26:06;;;;;;;14.77;12.18;;;;;;;;;;5063541;28;20086;-66
2023/04/22 13:28:32;;;;;;;16.58;13.30;;;;;;;;;;5069659;28;20047;-66
2023/04/22 13:30:58;;;;;;;18.65;15.63;;;;;;;;;;5046171;28;20059;-66
2023/04/22 13:33:24;;;;;;;17.77;15.98;;;;;;;;;;5066274;28;20049;-66
2023/04/22 13:35:50;;;;;;;18.67;16.63;;;;;;;;;;5047653;28;20524;-66
2023/04/22 13:38:17;;;;;;;19.15;17.23;;;;;;;;;;5051037;28;20060;-66
2023/04/22 13:40:43;;;;;;;19.88;17.77;;;;;;;;;;5050461;28;20074;-66
2023/04/22 13:43:09;;;;;;;20.05;17.95;;;;;;;;;;5052906;28;20044;-66
2023/04/22 13:45:35;;;;;;;22.95;18.58;;;;;;;;;;5071668;28;20117;-66
2023/04/22 13:48:02;;;;;;;20.90;18.70;;;;;;;;;;5051668;28;20044;-66
2023/04/22 13:50:28;;;;;;;22.33;19.83;;;;;;;;;;5054149;28;20055;-66
2023/04/22 13:52:54;;;;;;;21.70;19.50;;;;;;;;;;5071634;28;20036;-66
2023/04/22 13:55:20;;;;;;;22.65;20.25;;;;;;;;;;5072559;28;20052;-67
2023/04/22 13:57:46;;;;;;;25.17;22.10;;;;;;;;;;5071551;28;20037;-66
2023/04/22 14:00:13;;;;;;;24.08;21.63;;;;;;;;;;5048324;28;20044;-66
2023/04/22 14:02:39;;;;;;;28.08;22.48;;;;;;;;;;5068185;28;20055;-66
2023/04/22 14:05:06;;;;;;;28.10;24.10;;;;;;;;;;5071871;28;20044;-65
2023/04/22 14:07:32;;;;;;;31.98;25.15;;;;;;;;;;5071968;28;20403;-66
2023/04/22 14:09:58;;;;;;;29.02;25.90;;;;;;;;;;5071306;28;20483;-66
2023/04/22 14:12:24;;;;;;;28.55;25.65;;;;;;;;;;5072443;28;20048;-66
2023/04/22 14:14:50;;;;;;;34.08;26.80;;;;;;;;;;5071598;28;20044;-66